Site contains unofficial IBTrACS data. Visit the IBTrACS Website to access archived data.

1996 Tropical Cyclone NICHOLAS (1996346S09129)


IBTrACS version v04r00. Visit IBTrACS website for data access.
Please direct all questions to the IBTrACS Q and A forum

Storm track - Intensity - Wind Radii - Intensity Data - Source Data - All data

Summary Information

Satellite image near maximum intensity
Storm ID 1996346S09129
Start Dec 10 12Z
Landfall Dec 14 13Z, Dec 15 01Z
Max Intensity 45 kt (Dec 14 00Z), 985 mb (Dec 14 04Z)
End Dec 17 06Z
ATCF IDs SH101997
Track status Best track data.

Storm track plot

Map of storm track

Intensity plots

Map of storm track

Radial wind information

Map of storm track

Position and Intensity Table

BASIN ISO_TIME_________ NATURE LAT LON WMO WIND WMO PRES USA WIND BOM WIND BOM PRES NEUMANN WIND
degrees north degrees east kts mb kts kts mb kts
SI 1996-12-10 12:00:00 TS -8.70 129.00 20 20
SI 15:00:00 TS -8.79 128.60 20 20
SI 18:00:00 TS -8.90 128.20 20 20
SI 21:00:00 TS -9.04 127.79 20 20
SI 1996-12-11 00:00:00 TS -9.20 127.40 20 20
SI 03:00:00 TS -9.35 127.03 20 20
SI 06:00:00 TS -9.50 126.70 20 20
SI 09:00:00 TS -9.64 126.43 20 20
SI 12:00:00 TS -9.80 126.20 20 20
SI 15:00:00 TS -9.99 125.99 20 20
SI 18:00:00 TS -10.20 125.80 20 20
SI 21:00:00 TS -10.41 125.59 20 20
SI 1996-12-12 00:00:00 TS -10.60 125.40 20 20
SI 03:00:00 TS -10.76 125.23 20 20
SI 06:00:00 TS -10.90 125.10 20 20
SI 07:00:00 TS -10.95 125.00 25 1002 20 25 1002 20
SI 09:00:00 TS -11.07 124.88 20 25 1001 20
SI 12:00:00 TS -11.26 124.72 20 25 1000 20
SI 13:00:00 TS -11.34 124.65 25 1000 20 25 1000 20
SI 15:00:00 TS -11.48 124.56 22 25 1000 22
SI 18:00:00 TS -11.70 124.44 25 25 1000 25
SI 19:00:00 TS -11.77 124.40 25 1000 25 25 1000 25
SI 21:00:00 TS -11.92 124.34 27 25 1000 27
SI 22:00:00 TS -12.00 124.30 25 1000 28 25 1000 28
SI 1996-12-13 00:00:00 TS -12.19 124.21 30 28 998 30
SI 01:00:00 TS -12.29 124.16 30 998 30 30 998 30
SI 03:00:00 TS -12.49 124.10 32 30 998 32
SI 04:00:00 TS -12.59 124.06 30 998 33 30 998 33
SI 06:00:00 TS -12.80 123.98 35 30 996 35
SI 07:00:00 TS -12.91 123.94 30 996 35 30 996 35
SI 09:00:00 TS -13.13 123.87 35 30 996 35
SI 10:00:00 TS -13.24 123.84 30 996 35 30 996 35
SI 12:00:00 TS -13.47 123.80 35 30 996 35
SI 13:00:00 TS -13.58 123.78 30 996 35 30 996 35
SI 15:00:00 TS -13.80 123.73 37 33 994 37
SI 16:00:00 TS -13.91 123.71 35 994 38 35 994 38
SI 18:00:00 TS -14.11 123.70 40 38 992 40
SI 19:00:00 TS -14.21 123.70 40 992 40 40 992 40
SI 21:00:00 TS -14.43 123.69 42 40 990 42
SI 22:00:00 TS -14.54 123.70 40 990 43 40 990 43
SI 1996-12-14 00:00:00 TS -14.74 123.70 45 43 988 45
SI 01:00:00 TS -14.84 123.70 45 988 45 45 988 45
SI 03:00:00 TS -15.06 123.70 45 45 986 45
SI 04:00:00 TS -15.18 123.70 45 985 45 45 985 45
SI 06:00:00 TS -15.40 123.70 45 45 985 45
SI 07:00:00 TS -15.51 123.70 45 985 45 45 985 45
SI 09:00:00 TS -15.76 123.70 45 45 985 45
SI 10:00:00 TS -15.88 123.71 45 985 45 45 985 45
SI 12:00:00 TS -16.12 123.70 45 45 986 45
SI 13:00:00 TS -16.24 123.70 45 988 45 45 988 45
SI 15:00:00 TS -16.45 123.68 45 41 989 45
SI 16:00:00 TS -16.54 123.67 40 990 45 40 990 45
SI 18:00:00 TS -16.73 123.63 45 36 993 45
SI 19:00:00 TS -16.83 123.60 35 995 43 35 995 43
SI 21:00:00 TS -17.01 123.53 40 35 995 40
SI 22:00:00 TS -17.10 123.49 35 995 38 35 995 38
SI 1996-12-15 00:00:00 TS -17.25 123.43 35 35 995 35
SI 01:00:00 TS -17.31 123.42 35 995 34 35 995 34
SI 03:00:00 TS -17.44 123.40 32 35 995 32
SI 06:00:00 TS -17.62 123.43 30 35 995 30
SI 07:00:00 TS -17.69 123.46 35 995 30 35 995 30
SI 09:00:00 TS -17.84 123.53 30 33 995 30
SI 12:00:00 TS -18.07 123.66 30 30 997 30
SI 13:00:00 TS -18.16 123.70 30 998 30 30 998 30
SI 15:00:00 TS -18.32 123.77 30 30 998 30
SI 18:00:00 TS -18.57 123.89 30 30 998 30
SI 19:00:00 TS -18.65 123.94 30 998 29 30 998 29
SI 21:00:00 TS -18.80 124.03 27 28 998 27
SI 1996-12-16 00:00:00 TS -19.00 124.19 25 25 999 25
SI 01:00:00 TS -19.07 124.25 25 1000 25 25 1000 25
SI 03:00:00 TS -19.20 124.42 25 25 1000 25
SI 06:00:00 TS -19.36 124.70 25 25 1000 25
SI 07:00:00 TS -19.38 124.87 25 1000 25 25 1000 25
SI 09:00:00 TS -19.41 125.19 25 25
SI 12:00:00 TS -19.50 125.50 25 25
SI 15:00:00 TS -19.54 125.81 25 25
SI 18:00:00 TS -19.60 126.10 25 25
SI 21:00:00 TS -19.73 126.36 22 22
SI 1996-12-17 00:00:00 TS -19.90 126.60 20 20
SI 03:00:00 TS -20.10 126.85 17 17
SI 06:00:00 TS -20.30 127.10 15 15

Source Information

Agency Information
USA bsh101997.txt
TOKYO
CMA
HKO
NEWDELHI
REUNION
BOM IDCKMSTM0S.csv:Line=18979:NICHOLAS
NADI
WELLINGTON
DS824
TD9636
TD9635
NEUMANN tracks.sh:Storm=1074:NICHOLAS:BSH101997:JTWC&BM853
MLC

All available IBTrACS Data

SEASON BASIN SUBBASIN ISO_TIME_________ NATURE LAT LON WMO WIND WMO PRES WMO AGENCY DIST2LAND LANDFALL IFLAG USA AGENCY USA ATCF_ID USA LAT USA LON USA WIND USA SSHS BOM LAT BOM LON BOM TYPE BOM WIND BOM PRES BOM CI BOM ROCI BOM POS_METHOD BOM PRES_METHOD NEUMANN LAT NEUMANN LON NEUMANN CLASS NEUMANN WIND STORM SPEED STORM DIR
Year degrees north degrees east kts mb km km degrees north degrees east kts 1 degrees north degrees east kts mb 1 nmile degrees north degrees east kts kts degrees
1997 SI WA 1996-12-10 12:00:00 TS -8.70 129.00 190 149 O___________O_ jtwc_sh SH101997 -8.70 129.00 20 -1 -8.70 129.00 TC 20 8 257
1997 SI WA 15:00:00 TS -8.79 128.60 149 113 P___________P_ SH101997 -8.79 128.60 20 -1 -8.79 128.60 TC 20 8 256
1997 SI WA 18:00:00 TS -8.90 128.20 113 86 O___________O_ jtwc_sh SH101997 -8.90 128.20 20 -1 -8.90 128.20 TC 20 8 252
1997 SI WA 21:00:00 TS -9.04 127.79 86 70 P___________P_ SH101997 -9.04 127.79 20 -1 -9.04 127.79 TC 20 8 249
1997 SI WA 1996-12-11 00:00:00 TS -9.20 127.40 71 64 O___________O_ jtwc_sh SH101997 -9.20 127.40 20 -1 -9.20 127.40 TC 20 8 248
1997 SI WA 03:00:00 TS -9.35 127.03 64 55 P___________P_ SH101997 -9.35 127.03 20 -1 -9.35 127.03 TC 20 8 247
1997 SI WA 06:00:00 TS -9.50 126.70 60 57 O___________O_ jtwc_sh SH101997 -9.50 126.70 20 -1 -9.50 126.70 TC 20 7 244
1997 SI WA 09:00:00 TS -9.64 126.43 67 67 P___________P_ SH101997 -9.64 126.43 20 -1 -9.64 126.43 TC 20 6 239
1997 SI WA 12:00:00 TS -9.80 126.20 85 85 O___________O_ jtwc_sh SH101997 -9.80 126.20 20 -1 -9.80 126.20 TC 20 6 231
1997 SI WA 15:00:00 TS -9.99 125.99 99 95 P___________P_ SH101997 -9.99 125.99 20 -1 -9.99 125.99 TC 20 6 225
1997 SI WA 18:00:00 TS -10.20 125.80 109 109 O___________O_ jtwc_sh SH101997 -10.20 125.80 20 -1 -10.20 125.80 TC 20 6 223
1997 SI WA 21:00:00 TS -10.41 125.59 109 109 P___________P_ SH101997 -10.41 125.59 20 -1 -10.41 125.59 TC 20 6 225
1997 SI WA 1996-12-12 00:00:00 TS -10.60 125.40 109 101 O___________O_ jtwc_sh SH101997 -10.60 125.40 20 -1 -10.60 125.40 TC 20 5 225
1997 SI WA 03:00:00 TS -10.76 125.23 109 109 P___________P_ SH101997 -10.76 125.23 20 -1 -10.76 125.23 TC 20 4 224
1997 SI WA 06:00:00 TS -10.90 125.10 111 104 O___________O_ jtwc_sh SH101997 -10.90 125.10 20 -1 -10.90 125.10 TC 20 5 229
1997 SI WA 07:00:00 TS -10.95 125.00 25 1002 bom 114 109 P_____O_____P_ SH101997 -10.95 125.06 20 -1 -11.00 124.50 20 25 1002 1.50 134 3 5 -10.95 125.06 TC 20 6 233
1997 SI WA 09:00:00 TS -11.07 124.88 120 116 P_____P_____P_ SH101997 -11.04 124.99 20 -1 -11.17 124.41 20 25 1001 134 -11.04 124.99 TC 20 5 221
1997 SI WA 12:00:00 TS -11.26 124.72 135 129 O_____P_____O_ jtwc_sh SH101997 -11.20 124.90 20 -1 -11.42 124.26 20 25 1000 134 -11.20 124.90 TC 20 5 220
1997 SI WA 13:00:00 TS -11.34 124.65 25 1000 bom 129 139 P_____O_____P_ SH101997 -11.26 124.87 20 -1 -11.50 124.20 20 25 1000 2.00 134 3 5 -11.26 124.87 TC 20 5 215
1997 SI WA 15:00:00 TS -11.48 124.56 149 145 P_____P_____P_ SH101997 -11.39 124.81 22 -1 -11.66 124.08 20 25 1000 134 -11.39 124.81 TC 22 5 209
1997 SI WA 18:00:00 TS -11.70 124.44 159 159 O_____P_____O_ jtwc_sh SH101997 -11.60 124.70 25 -1 -11.91 123.93 20 25 1000 134 -11.60 124.70 TC 25 5 209
1997 SI WA 19:00:00 TS -11.77 124.40 25 1000 bom 169 169 P_____O_____P_ SH101997 -11.66 124.66 25 -1 -12.00 123.90 20 25 1000 2.00 134 3 5 -11.66 124.66 TC 25 5 204
1997 SI WA 21:00:00 TS -11.92 124.34 176 176 P_____P_____P_ SH101997 -11.79 124.56 27 -1 -12.19 123.90 20 25 1000 134 -11.79 124.56 TC 27 5 204
1997 SI WA 22:00:00 TS -12.00 124.30 25 1000 bom 187 187 P_____O_____P_ SH101997 -11.85 124.51 28 -1 -12.30 123.90 20 25 1000 2.00 134 3 5 -11.85 124.51 TC 28 6 204
1997 SI WA 1996-12-13 00:00:00 TS -12.19 124.21 206 206 O_____P_____O_ jtwc_sh SH101997 -12.00 124.40 30 -1 -12.57 123.83 20 28 998 134 -12.00 124.40 TC 30 6 206
1997 SI WA 01:00:00 TS -12.29 124.16 30 998 bom 217 215 P_____O_____P_ SH101997 -12.09 124.35 30 -1 -12.70 123.80 20 30 998 2.50 134 3 5 -12.09 124.35 TC 30 6 200
1997 SI WA 03:00:00 TS -12.49 124.10 237 237 P_____P_____P_ SH101997 -12.28 124.24 32 -1 -12.91 123.80 20 30 998 134 -12.28 124.24 TC 32 6 199
1997 SI WA 04:00:00 TS -12.59 124.06 30 998 bom 248 239 P_____O_____P_ SH101997 -12.38 124.19 33 -1 -13.00 123.80 20 30 998 2.50 134 3 5 -12.38 124.19 TC 33 7 200
1997 SI WA 06:00:00 TS -12.80 123.98 239 230 O_____P_____O_ jtwc_sh SH101997 -12.60 124.10 35 0 -13.20 123.74 20 30 996 134 -12.60 124.10 TC 35 7 200
1997 SI WA 07:00:00 TS -12.91 123.94 30 996 bom 236 218 P_____O_____P_ SH101997 -12.71 124.06 35 0 -13.30 123.70 20 30 996 2.50 134 3 5 -12.71 124.06 TC 35 7 199
1997 SI WA 09:00:00 TS -13.13 123.87 218 210 P_____P_____P_ SH101997 -12.94 123.98 35 0 -13.50 123.63 20 30 996 134 -12.94 123.98 TC 35 7 196
1997 SI WA 10:00:00 TS -13.24 123.84 30 996 bom 217 202 P_____O_____P_ SH101997 -13.06 123.95 35 0 -13.60 123.60 20 30 996 2.50 134 3 5 -13.06 123.95 TC 35 7 191
1997 SI WA 12:00:00 TS -13.47 123.80 194 188 O_____P_____O_ jtwc_sh SH101997 -13.30 123.90 35 0 -13.80 123.60 20 30 996 134 -13.30 123.90 TC 35 7 190
1997 SI WA 13:00:00 TS -13.58 123.78 30 996 bom 188 181 P_____O_____P_ SH101997 -13.42 123.88 35 0 -13.90 123.60 20 30 996 2.50 134 3 5 -13.42 123.88 TC 35 7 191
1997 SI WA 15:00:00 TS -13.80 123.73 184 179 P_____P_____P_ SH101997 -13.65 123.83 37 0 -14.11 123.53 20 33 994 134 -13.65 123.83 TC 37 7 192
1997 SI WA 16:00:00 TS -13.91 123.71 35 994 bom 179 170 P_____O_____P_ SH101997 -13.77 123.82 38 0 -14.20 123.50 30 35 994 3.00 134 3 5 -13.77 123.82 TC 38 6 185
1997 SI WA 18:00:00 TS -14.11 123.70 170 162 O_____P_____O_ jtwc_sh SH101997 -14.00 123.80 40 0 -14.33 123.49 30 38 992 134 -14.00 123.80 TC 40 6 0
1997 SI WA 19:00:00 TS -14.21 123.70 40 992 bom 162 148 P_____O_____P_ SH101997 -14.12 123.79 40 0 -14.40 123.50 30 40 992 3.00 134 3 5 -14.12 123.79 TC 40 7 0
1997 SI WA 21:00:00 TS -14.43 123.69 148 141 P_____P_____P_ SH101997 -14.35 123.79 42 0 -14.60 123.50 30 40 990 134 -14.35 123.79 TC 42 7 179
1997 SI WA 22:00:00 TS -14.54 123.70 40 990 bom 141 125 P_____O_____P_ SH101997 -14.47 123.79 43 0 -14.70 123.50 30 40 990 3.00 134 3 5 -14.47 123.79 TC 43 6 0
1997 SI WA 1996-12-14 00:00:00 TS -14.74 123.70 125 116 O_____P_____O_ jtwc_sh SH101997 -14.70 123.80 45 0 -14.83 123.50 30 43 988 151 -14.70 123.80 TC 45 6 0
1997 SI WA 01:00:00 TS -14.84 123.70 45 988 bom 116 100 P_____O_____P_ SH101997 -14.82 123.80 45 0 -14.90 123.50 30 45 988 3.00 161 3 5 -14.82 123.80 TC 45 6 178
1997 SI WA 03:00:00 TS -15.06 123.70 93 87 P_____P_____P_ SH101997 -15.05 123.80 45 0 -15.09 123.50 30 45 986 161 -15.05 123.80 TC 45 7 179
1997 SI WA 04:00:00 TS -15.18 123.70 45 985 bom 87 78 P_____O_____P_ SH101997 -15.17 123.80 45 0 -15.20 123.50 30 45 985 3.00 161 3 3 -15.17 123.80 TC 45 7 176
1997 SI WA 06:00:00 TS -15.40 123.70 78 75 O_____P_____O_ jtwc_sh SH101997 -15.40 123.80 45 0 -15.39 123.50 30 45 985 161 -15.40 123.80 TC 45 7 176
1997 SI WA 07:00:00 TS -15.51 123.70 45 985 bom 75 55 P_____O_____P_ SH101997 -15.52 123.80 45 0 -15.50 123.50 30 45 985 3.00 161 3 3 -15.52 123.80 TC 45 7 0
1997 SI WA 09:00:00 TS -15.76 123.70 44 33 P_____P_____P_ SH101997 -15.76 123.81 45 0 -15.76 123.50 30 45 985 161 -15.76 123.81 TC 45 7 176
1997 SI WA 10:00:00 TS -15.88 123.71 45 985 bom 33 11 P_____O_____P_ SH101997 -15.87 123.81 45 0 -15.90 123.50 30 45 985 3.00 161 3 5 -15.87 123.81 TC 45 7 184
1997 SI WA 12:00:00 TS -16.12 123.70 11 0 O_____P_____O_ jtwc_sh SH101997 -16.10 123.80 45 0 -16.17 123.50 30 45 986 161 -16.10 123.80 TC 45 7 182
1997 SI WA 13:00:00 TS -16.24 123.70 45 988 bom 0 0 P_____O_____P_ SH101997 -16.21 123.79 45 0 -16.30 123.50 30 45 988 3.00 161 3 5 -16.21 123.79 TC 45 6 185
1997 SI WA 15:00:00 TS -16.45 123.68 0 0 P_____P_____P_ SH101997 -16.41 123.77 45 0 -16.51 123.50 30 41 989 161 -16.41 123.77 TC 45 6 184
1997 SI WA 16:00:00 TS -16.54 123.67 40 990 bom 0 0 P_____O_____P_ SH101997 -16.51 123.75 45 0 -16.60 123.50 30 40 990 3.00 161 3 5 -16.51 123.75 TC 45 6 188
1997 SI WA 18:00:00 TS -16.73 123.63 0 0 O_____P_____O_ jtwc_sh SH101997 -16.70 123.70 45 0 -16.80 123.50 30 36 993 161 -16.70 123.70 TC 45 6 193
1997 SI WA 19:00:00 TS -16.83 123.60 35 995 bom 11 11 P_____O_____P_ SH101997 -16.79 123.65 43 0 -16.90 123.50 30 35 995 3.00 161 3 5 -16.79 123.65 TC 43 6 199
1997 SI WA 21:00:00 TS -17.01 123.53 21 21 P_____P_____P_ SH101997 -16.97 123.54 40 0 -17.11 123.50 30 35 995 161 -16.97 123.54 TC 40 6 202
1997 SI WA 22:00:00 TS -17.10 123.49 35 995 bom 21 10 P_____O_____P_ SH101997 -17.05 123.49 38 0 -17.20 123.50 30 35 995 3.00 161 3 5 -17.05 123.49 TC 38 5 200
1997 SI WA 1996-12-15 00:00:00 TS -17.25 123.43 10 0 O_____P_____O_ jtwc_sh SH101997 -17.20 123.40 35 0 -17.34 123.50 30 35 995 161 -17.20 123.40 TC 35 5 199
1997 SI WA 01:00:00 TS -17.31 123.42 35 995 bom 0 0 P_____O_____P_ SH101997 -17.27 123.37 34 0 -17.40 123.50 30 35 995 3.00 161 3 5 -17.27 123.37 TC 34 4 194
1997 SI WA 03:00:00 TS -17.44 123.40 0 0 P_____P_____P_ SH101997 -17.40 123.36 32 -1 -17.51 123.50 30 35 995 152 -17.40 123.36 TC 32 4 175
1997 SI WA 06:00:00 TS -17.62 123.43 0 0 O_____P_____O_ jtwc_sh SH101997 -17.60 123.40 30 -1 -17.65 123.49 30 35 995 138 -17.60 123.40 TC 30 4 167
1997 SI WA 07:00:00 TS -17.69 123.46 35 995 bom 0 0 P_____O_____P_ SH101997 -17.68 123.43 30 -1 -17.70 123.50 30 35 995 3.00 134 3 5 -17.68 123.43 TC 30 5 157
1997 SI WA 09:00:00 TS -17.84 123.53 0 0 P_____P_____P_ SH101997 -17.84 123.53 30 -1 -17.82 123.53 30 33 995 125 -17.84 123.53 TC 30 5 154
1997 SI WA 12:00:00 TS -18.07 123.66 0 0 O_____P_____O_ jtwc_sh SH101997 -18.10 123.70 30 -1 -18.03 123.58 30 30 997 111 -18.10 123.70 TC 30 5 153
1997 SI WA 13:00:00 TS -18.16 123.70 30 998 bom 0 0 P_____O_____P_ SH101997 -18.19 123.75 30 -1 -18.10 123.60 20 30 998 107 3 5 -18.19 123.75 TC 30 5 157
1997 SI WA 15:00:00 TS -18.32 123.77 0 0 P_____P_____P_ SH101997 -18.36 123.84 30 -1 -18.26 123.63 20 30 998 107 -18.36 123.84 TC 30 5 156
1997 SI WA 18:00:00 TS -18.57 123.89 0 0 O_____P_____O_ jtwc_sh SH101997 -18.60 124.00 30 -1 -18.51 123.68 20 30 998 107 -18.60 124.00 TC 30 5 154
1997 SI WA 19:00:00 TS -18.65 123.94 30 998 bom 0 0 P_____O_____P_ SH101997 -18.67 124.06 29 -1 -18.60 123.70 20 30 998 107 3 5 -18.67 124.06 TC 29 5 149
1997 SI WA 21:00:00 TS -18.80 124.03 0 0 P_____P_____P_ SH101997 -18.81 124.19 27 -1 -18.76 123.73 20 28 998 107 -18.81 124.19 TC 27 5 146
1997 SI WA 1996-12-16 00:00:00 TS -19.00 124.19 0 0 O_____P_____O_ jtwc_sh SH101997 -19.00 124.40 25 -1 -19.01 123.78 20 25 999 107 -19.00 124.40 TC 25 5 143
1997 SI WA 01:00:00 TS -19.07 124.25 25 1000 bom 0 0 P_____O_____P_ SH101997 -19.06 124.48 25 -1 -19.10 123.80 20 25 1000 107 3 5 -19.06 124.48 TC 25 6 133
1997 SI WA 03:00:00 TS -19.20 124.42 0 0 P_____P_____P_ SH101997 -19.16 124.64 25 -1 -19.29 123.83 20 25 1000 107 -19.16 124.64 TC 25 6 124
1997 SI WA 06:00:00 TS -19.36 124.70 0 0 O_____P_____O_ jtwc_sh SH101997 -19.30 124.90 25 -1 -19.60 123.88 20 25 1000 107 -19.30 124.90 TC 25 7 113
1997 SI WA 07:00:00 TS -19.38 124.87 25 1000 bom 0 0 P_____O_____P_ SH101997 -19.34 124.99 25 -1 -19.70 123.90 20 25 1000 107 3 5 -19.34 124.99 TC 25 9 97
1997 SI WA 09:00:00 TS -19.41 125.19 0 0 P___________P_ SH101997 -19.41 125.19 25 -1 20 -19.41 125.19 TC 25 7 101
1997 SI WA 12:00:00 TS -19.50 125.50 0 0 O___________O_ jtwc_sh SH101997 -19.50 125.50 25 -1 20 -19.50 125.50 TC 25 6 102
1997 SI WA 15:00:00 TS -19.54 125.81 0 0 P___________P_ SH101997 -19.54 125.81 25 -1 -19.54 125.81 TC 25 6 100
1997 SI WA 18:00:00 TS -19.60 126.10 0 0 O___________O_ jtwc_sh SH101997 -19.60 126.10 25 -1 -19.60 126.10 TC 25 6 110
1997 SI WA 21:00:00 TS -19.73 126.36 0 0 P___________P_ SH101997 -19.73 126.36 22 -1 -19.73 126.36 TC 22 6 123
1997 SI WA 1996-12-17 00:00:00 TS -19.90 126.60 0 0 O___________O_ jtwc_sh SH101997 -19.90 126.60 20 -1 -19.90 126.60 TC 20 6 129
1997 SI WA 03:00:00 TS -20.10 126.85 0 0 P___________P_ SH101997 -20.10 126.85 17 -1 -20.10 126.85 TC 17 6 130
1997 SI WA 06:00:00 TS -20.30 127.10 0 O___________O_ jtwc_sh SH101997 -20.30 127.10 15 -1 -20.30 127.10 TC 15 6 131